sensor_id;sensor_type;location;lat;lon;timestamp;pressure;altitude;pressure_sealevel;temperature;humidity
77171;BME280;66144;50.020;14.422;2023-03-14T00:00:59;97206.22;;;10.81;71.47
77171;BME280;66144;50.020;14.422;2023-03-14T00:03:24;97215.03;;;10.85;71.33
77171;BME280;66144;50.020;14.422;2023-03-14T00:05:50;97222.09;;;10.85;72.66
77171;BME280;66144;50.020;14.422;2023-03-14T00:08:15;97231.19;;;10.87;72.57
77171;BME280;66144;50.020;14.422;2023-03-14T00:10:40;97243.47;;;10.87;73.58
77171;BME280;66144;50.020;14.422;2023-03-14T00:13:06;97233.31;;;10.85;73.90
77171;BME280;66144;50.020;14.422;2023-03-14T00:15:34;97224.13;;;10.88;74.44
77171;BME280;66144;50.020;14.422;2023-03-14T00:18:00;97206.41;;;10.85;74.96
77171;BME280;66144;50.020;14.422;2023-03-14T00:20:26;97205.84;;;10.88;74.60
77171;BME280;66144;50.020;14.422;2023-03-14T00:22:51;97196.75;;;10.85;75.17
77171;BME280;66144;50.020;14.422;2023-03-14T00:25:17;97195.13;;;10.89;74.94
77171;BME280;66144;50.020;14.422;2023-03-14T00:27:42;97186.03;;;10.87;74.89
77171;BME280;66144;50.020;14.422;2023-03-14T00:30:08;97186.31;;;10.85;74.96
77171;BME280;66144;50.020;14.422;2023-03-14T00:32:33;97179.53;;;10.84;75.22
77171;BME280;66144;50.020;14.422;2023-03-14T00:34:59;97169.66;;;10.81;75.63
77171;BME280;66144;50.020;14.422;2023-03-14T00:37:26;97171.78;;;10.79;75.68
77171;BME280;66144;50.020;14.422;2023-03-14T00:39:52;97159.59;;;10.75;75.43
77171;BME280;66144;50.020;14.422;2023-03-14T00:42:17;97145.47;;;10.76;75.60
77171;BME280;66144;50.020;14.422;2023-03-14T00:44:42;97131.78;;;10.65;75.69
77171;BME280;66144;50.020;14.422;2023-03-14T00:47:08;97108.78;;;10.67;75.03
77171;BME280;66144;50.020;14.422;2023-03-14T00:49:33;97104.84;;;10.69;75.28
77171;BME280;66144;50.020;14.422;2023-03-14T00:51:58;97104.06;;;10.69;72.62
77171;BME280;66144;50.020;14.422;2023-03-14T00:54:24;97095.16;;;10.70;74.76
77171;BME280;66144;50.020;14.422;2023-03-14T00:56:49;97072.94;;;10.72;73.18
77171;BME280;66144;50.020;14.422;2023-03-14T00:59:15;97058.03;;;10.73;73.90
77171;BME280;66144;50.020;14.422;2023-03-14T01:01:41;97009.84;;;10.79;74.71
77171;BME280;66144;50.020;14.422;2023-03-14T01:04:07;97011.59;;;10.84;73.98
77171;BME280;66144;50.020;14.422;2023-03-14T01:06:33;96978.44;;;10.84;74.24
77171;BME280;66144;50.020;14.422;2023-03-14T01:08:58;96979.88;;;10.90;73.17
77171;BME280;66144;50.020;14.422;2023-03-14T01:11:32;96960.84;;;10.90;75.04
77171;BME280;66144;50.020;14.422;2023-03-14T01:13:58;96936.44;;;10.94;73.96
77171;BME280;66144;50.020;14.422;2023-03-14T01:16:26;96938.34;;;11.02;73.25
77171;BME280;66144;50.020;14.422;2023-03-14T01:18:52;96951.41;;;11.02;74.39
77171;BME280;66144;50.020;14.422;2023-03-14T01:21:19;96964.97;;;11.04;74.59
77171;BME280;66144;50.020;14.422;2023-03-14T01:23:45;96958.97;;;11.04;73.17
77171;BME280;66144;50.020;14.422;2023-03-14T01:26:13;96953.75;;;11.04;74.37
77171;BME280;66144;50.020;14.422;2023-03-14T01:28:40;96945.63;;;11.05;73.62
77171;BME280;66144;50.020;14.422;2023-03-14T01:31:07;96927.03;;;11.07;74.85
77171;BME280;66144;50.020;14.422;2023-03-14T01:33:33;96926.25;;;11.06;75.26
77171;BME280;66144;50.020;14.422;2023-03-14T01:35:59;96950.06;;;11.05;75.13
77171;BME280;66144;50.020;14.422;2023-03-14T01:38:24;96967.09;;;11.02;75.42
77171;BME280;66144;50.020;14.422;2023-03-14T01:40:49;96956.19;;;10.87;76.18
77171;BME280;66144;50.020;14.422;2023-03-14T01:43:17;96950.66;;;10.88;76.07
77171;BME280;66144;50.020;14.422;2023-03-14T01:48:34;96961.22;;;10.83;76.31
77171;BME280;66144;50.020;14.422;2023-03-14T01:51:02;96966.34;;;10.75;76.36
77171;BME280;66144;50.020;14.422;2023-03-14T01:53:28;96967.72;;;10.72;76.70
77171;BME280;66144;50.020;14.422;2023-03-14T01:55:55;96964.91;;;10.68;76.92
77171;BME280;66144;50.020;14.422;2023-03-14T01:58:25;96963.56;;;10.71;76.74
77171;BME280;66144;50.020;14.422;2023-03-14T02:00:54;96948.19;;;10.69;76.95
77171;BME280;66144;50.020;14.422;2023-03-14T02:03:21;96940.63;;;10.68;76.88
77171;BME280;66144;50.020;14.422;2023-03-14T02:05:49;96932.88;;;10.63;76.99
77171;BME280;66144;50.020;14.422;2023-03-14T02:08:18;96929.69;;;10.66;76.26
77171;BME280;66144;50.020;14.422;2023-03-14T02:10:47;96923.72;;;10.65;76.63
77171;BME280;66144;50.020;14.422;2023-03-14T02:13:15;96934.63;;;10.67;76.17
77171;BME280;66144;50.020;14.422;2023-03-14T02:15:41;96935.13;;;10.69;76.61
77171;BME280;66144;50.020;14.422;2023-03-14T02:18:08;96937.44;;;10.71;76.20
77171;BME280;66144;50.020;14.422;2023-03-14T02:20:39;96923.78;;;10.60;76.88
77171;BME280;66144;50.020;14.422;2023-03-14T02:23:06;96934.44;;;10.64;76.29
77171;BME280;66144;50.020;14.422;2023-03-14T02:25:46;96961.31;;;10.64;77.01
77171;BME280;66144;50.020;14.422;2023-03-14T02:28:13;96974.66;;;10.63;76.55
77171;BME280;66144;50.020;14.422;2023-03-14T02:30:39;96977.38;;;10.58;76.80
77171;BME280;66144;50.020;14.422;2023-03-14T02:33:10;96983.84;;;10.60;76.92
77171;BME280;66144;50.020;14.422;2023-03-14T02:36:11;96992.44;;;10.61;76.99
77171;BME280;66144;50.020;14.422;2023-03-14T02:41:20;96980.47;;;10.60;77.54
77171;BME280;66144;50.020;14.422;2023-03-14T02:43:45;96977.38;;;10.58;77.42
77171;BME280;66144;50.020;14.422;2023-03-14T02:46:13;96975.06;;;10.56;77.21
77171;BME280;66144;50.020;14.422;2023-03-14T02:48:52;96951.38;;;10.53;77.70
77171;BME280;66144;50.020;14.422;2023-03-14T02:51:19;96937.06;;;10.50;77.50
77171;BME280;66144;50.020;14.422;2023-03-14T02:53:45;96931.56;;;10.52;77.36
77171;BME280;66144;50.020;14.422;2023-03-14T02:56:10;96928.06;;;10.56;77.74
77171;BME280;66144;50.020;14.422;2023-03-14T02:58:36;96916.09;;;10.55;78.13
77171;BME280;66144;50.020;14.422;2023-03-14T03:01:02;96905.53;;;10.60;77.85
77171;BME280;66144;50.020;14.422;2023-03-14T03:03:27;96899.06;;;10.58;77.46
77171;BME280;66144;50.020;14.422;2023-03-14T03:05:54;96895.38;;;10.59;77.85
77171;BME280;66144;50.020;14.422;2023-03-14T03:08:22;96910.56;;;10.57;77.64
77171;BME280;66144;50.020;14.422;2023-03-14T03:10:48;96903.53;;;10.57;77.81
77171;BME280;66144;50.020;14.422;2023-03-14T03:13:14;96904.38;;;10.53;78.01
77171;BME280;66144;50.020;14.422;2023-03-14T03:15:39;96906.50;;;10.51;77.96
77171;BME280;66144;50.020;14.422;2023-03-14T03:18:06;96900.81;;;10.49;78.23
77171;BME280;66144;50.020;14.422;2023-03-14T03:20:31;96881.56;;;10.45;78.07
77171;BME280;66144;50.020;14.422;2023-03-14T03:22:58;96873.66;;;10.50;77.83
77171;BME280;66144;50.020;14.422;2023-03-14T03:25:23;96876.84;;;10.47;77.85
77171;BME280;66144;50.020;14.422;2023-03-14T03:27:49;96873.16;;;10.48;77.95
77171;BME280;66144;50.020;14.422;2023-03-14T03:30:14;96876.63;;;10.43;78.15
77171;BME280;66144;50.020;14.422;2023-03-14T03:32:40;96880.03;;;10.44;78.14
77171;BME280;66144;50.020;14.422;2023-03-14T03:35:06;96862.81;;;10.43;78.10
77171;BME280;66144;50.020;14.422;2023-03-14T03:37:32;96868.50;;;10.45;77.87
77171;BME280;66144;50.020;14.422;2023-03-14T03:39:57;96870.63;;;10.43;77.60
77171;BME280;66144;50.020;14.422;2023-03-14T03:42:23;96880.91;;;10.39;78.16
77171;BME280;66144;50.020;14.422;2023-03-14T03:44:48;96898.50;;;10.33;78.28
77171;BME280;66144;50.020;14.422;2023-03-14T03:47:15;96908.94;;;10.33;78.09
77171;BME280;66144;50.020;14.422;2023-03-14T03:49:40;96909.03;;;10.28;78.36
77171;BME280;66144;50.020;14.422;2023-03-14T03:52:05;96898.88;;;10.27;78.05
77171;BME280;66144;50.020;14.422;2023-03-14T03:54:31;96901.75;;;10.25;77.76
77171;BME280;66144;50.020;14.422;2023-03-14T03:56:59;96900.72;;;10.26;77.57
77171;BME280;66144;50.020;14.422;2023-03-14T03:59:24;96903.31;;;10.26;76.65
77171;BME280;66144;50.020;14.422;2023-03-14T04:01:50;96902.66;;;10.34;75.39
77171;BME280;66144;50.020;14.422;2023-03-14T04:04:15;96889.19;;;10.41;75.74
77171;BME280;66144;50.020;14.422;2023-03-14T04:06:41;96900.13;;;10.57;75.30
77171;BME280;66144;50.020;14.422;2023-03-14T04:09:07;96916.56;;;10.71;74.48
77171;BME280;66144;50.020;14.422;2023-03-14T04:11:33;96908.03;;;10.79;74.96
77171;BME280;66144;50.020;14.422;2023-03-14T04:13:58;96909.72;;;10.97;74.70
77171;BME280;66144;50.020;14.422;2023-03-14T04:16:25;96906.31;;;11.11;74.49
77171;BME280;66144;50.020;14.422;2023-03-14T04:18:51;96912.75;;;11.27;74.10
77171;BME280;66144;50.020;14.422;2023-03-14T04:21:17;96916.84;;;11.41;73.72
77171;BME280;66144;50.020;14.422;2023-03-14T04:23:42;96916.78;;;11.55;73.15
77171;BME280;66144;50.020;14.422;2023-03-14T04:26:07;96914.44;;;11.67;72.58
77171;BME280;66144;50.020;14.422;2023-03-14T04:28:33;96902.78;;;11.73;72.43
77171;BME280;66144;50.020;14.422;2023-03-14T04:31:07;96900.06;;;11.79;72.51
77171;BME280;66144;50.020;14.422;2023-03-14T04:33:32;96909.75;;;11.78;72.67
77171;BME280;66144;50.020;14.422;2023-03-14T04:35:57;96913.13;;;11.79;72.67
77171;BME280;66144;50.020;14.422;2023-03-14T04:38:23;96914.75;;;11.74;72.89
77171;BME280;66144;50.020;14.422;2023-03-14T04:40:48;96908.59;;;11.70;72.75
77171;BME280;66144;50.020;14.422;2023-03-14T04:43:13;96908.50;;;11.53;72.64
77171;BME280;66144;50.020;14.422;2023-03-14T04:45:42;96898.09;;;11.62;71.50
77171;BME280;66144;50.020;14.422;2023-03-14T04:48:07;96898.97;;;11.57;71.78
77171;BME280;66144;50.020;14.422;2023-03-14T04:50:33;96920.06;;;11.61;71.86
77171;BME280;66144;50.020;14.422;2023-03-14T04:52:58;96917.34;;;11.66;71.83
77171;BME280;66144;50.020;14.422;2023-03-14T04:55:24;96907.06;;;11.69;72.10
77171;BME280;66144;50.020;14.422;2023-03-14T04:57:49;96909.38;;;11.71;71.90
77171;BME280;66144;50.020;14.422;2023-03-14T05:00:14;96902.97;;;11.77;71.79
77171;BME280;66144;50.020;14.422;2023-03-14T05:02:43;96897.22;;;11.75;72.08
77171;BME280;66144;50.020;14.422;2023-03-14T05:05:09;96897.75;;;11.77;71.26
77171;BME280;66144;50.020;14.422;2023-03-14T05:07:34;96886.31;;;11.73;70.57
77171;BME280;66144;50.020;14.422;2023-03-14T05:09:59;96895.25;;;11.72;70.96
77171;BME280;66144;50.020;14.422;2023-03-14T05:12:25;96903.97;;;11.67;71.05
77171;BME280;66144;50.020;14.422;2023-03-14T05:14:50;96889.53;;;11.70;70.94
77171;BME280;66144;50.020;14.422;2023-03-14T05:17:16;96895.84;;;11.69;70.91
77171;BME280;66144;50.020;14.422;2023-03-14T05:19:41;96903.78;;;11.64;70.99
77171;BME280;66144;50.020;14.422;2023-03-14T05:22:07;96891.31;;;11.61;70.81
77171;BME280;66144;50.020;14.422;2023-03-14T05:24:33;96890.06;;;11.58;70.91
77171;BME280;66144;50.020;14.422;2023-03-14T05:26:58;96892.19;;;11.56;70.86
77171;BME280;66144;50.020;14.422;2023-03-14T05:29:24;96880.50;;;11.54;70.73
77171;BME280;66144;50.020;14.422;2023-03-14T05:31:49;96868.66;;;11.56;70.86
77171;BME280;66144;50.020;14.422;2023-03-14T05:34:14;96860.66;;;11.53;70.60
77171;BME280;66144;50.020;14.422;2023-03-14T05:36:40;96870.84;;;11.54;70.51
77171;BME280;66144;50.020;14.422;2023-03-14T05:39:05;96882.69;;;11.60;70.27
77171;BME280;66144;50.020;14.422;2023-03-14T05:41:30;96891.59;;;11.59;70.28
77171;BME280;66144;50.020;14.422;2023-03-14T05:43:56;96891.78;;;11.63;69.99
77171;BME280;66144;50.020;14.422;2023-03-14T05:46:21;96890.13;;;11.67;69.51
77171;BME280;66144;50.020;14.422;2023-03-14T05:48:46;96883.53;;;11.69;69.57
77171;BME280;66144;50.020;14.422;2023-03-14T05:51:12;96877.38;;;11.74;69.55
77171;BME280;66144;50.020;14.422;2023-03-14T05:53:37;96883.38;;;11.74;69.41
77171;BME280;66144;50.020;14.422;2023-03-14T05:56:03;96885.22;;;11.74;69.21
77171;BME280;66144;50.020;14.422;2023-03-14T05:58:28;96881.75;;;11.79;69.27
77171;BME280;66144;50.020;14.422;2023-03-14T06:00:53;96876.41;;;11.84;69.70
77171;BME280;66144;50.020;14.422;2023-03-14T06:03:19;96879.00;;;11.84;68.73
77171;BME280;66144;50.020;14.422;2023-03-14T06:05:44;96873.47;;;11.85;68.64
77171;BME280;66144;50.020;14.422;2023-03-14T06:08:09;96872.72;;;11.85;68.18
77171;BME280;66144;50.020;14.422;2023-03-14T06:10:36;96872.72;;;11.93;68.38
77171;BME280;66144;50.020;14.422;2023-03-14T06:13:01;96874.59;;;11.93;68.09
77171;BME280;66144;50.020;14.422;2023-03-14T06:15:27;96900.16;;;11.96;68.11
77171;BME280;66144;50.020;14.422;2023-03-14T06:17:54;96906.44;;;11.95;68.34
77171;BME280;66144;50.020;14.422;2023-03-14T06:20:20;96909.06;;;11.95;68.79
77171;BME280;66144;50.020;14.422;2023-03-14T06:22:45;96917.38;;;11.97;68.01
77171;BME280;66144;50.020;14.422;2023-03-14T06:25:10;96916.19;;;12.03;68.22
77171;BME280;66144;50.020;14.422;2023-03-14T06:27:36;96908.81;;;12.05;69.46
77171;BME280;66144;50.020;14.422;2023-03-14T06:30:01;96916.38;;;12.06;68.83
77171;BME280;66144;50.020;14.422;2023-03-14T06:32:27;96918.69;;;12.08;69.12
77171;BME280;66144;50.020;14.422;2023-03-14T06:34:52;96916.06;;;12.08;68.63
77171;BME280;66144;50.020;14.422;2023-03-14T06:37:18;96918.69;;;12.08;67.39
77171;BME280;66144;50.020;14.422;2023-03-14T06:39:43;96922.56;;;12.10;67.20
77171;BME280;66144;50.020;14.422;2023-03-14T06:42:09;96917.03;;;12.12;67.25
77171;BME280;66144;50.020;14.422;2023-03-14T06:44:35;96915.94;;;12.13;67.34
77171;BME280;66144;50.020;14.422;2023-03-14T06:47:00;96902.72;;;12.18;67.00
77171;BME280;66144;50.020;14.422;2023-03-14T06:49:26;96902.88;;;12.22;66.49
77171;BME280;66144;50.020;14.422;2023-03-14T06:51:51;96901.81;;;12.23;66.19
77171;BME280;66144;50.020;14.422;2023-03-14T06:54:16;96911.69;;;12.26;66.41
77171;BME280;66144;50.020;14.422;2023-03-14T06:56:42;96913.06;;;12.32;65.66
77171;BME280;66144;50.020;14.422;2023-03-14T06:59:07;96919.09;;;12.32;64.80
77171;BME280;66144;50.020;14.422;2023-03-14T07:01:36;96928.47;;;12.33;64.82
77171;BME280;66144;50.020;14.422;2023-03-14T07:04:02;96920.81;;;12.37;64.52
77171;BME280;66144;50.020;14.422;2023-03-14T07:06:27;96937.63;;;12.44;64.76
77171;BME280;66144;50.020;14.422;2023-03-14T07:08:55;96936.09;;;12.43;64.58
77171;BME280;66144;50.020;14.422;2023-03-14T07:11:20;96935.66;;;12.50;64.04
77171;BME280;66144;50.020;14.422;2023-03-14T07:13:46;96939.50;;;12.53;63.92
77171;BME280;66144;50.020;14.422;2023-03-14T07:16:11;96932.72;;;12.52;63.32
77171;BME280;66144;50.020;14.422;2023-03-14T07:18:37;96939.97;;;12.55;63.00
77171;BME280;66144;50.020;14.422;2023-03-14T07:21:02;96939.22;;;12.63;63.29
77171;BME280;66144;50.020;14.422;2023-03-14T07:23:28;96940.94;;;12.67;62.43
77171;BME280;66144;50.020;14.422;2023-03-14T07:25:54;96934.47;;;12.73;63.20
77171;BME280;66144;50.020;14.422;2023-03-14T07:28:20;96931.06;;;12.73;62.95
77171;BME280;66144;50.020;14.422;2023-03-14T07:30:46;96935.41;;;12.77;62.31
77171;BME280;66144;50.020;14.422;2023-03-14T07:33:12;96932.50;;;12.79;62.71
77171;BME280;66144;50.020;14.422;2023-03-14T07:35:37;96934.03;;;12.80;62.64
77171;BME280;66144;50.020;14.422;2023-03-14T07:38:03;96930.00;;;12.74;62.18
77171;BME280;66144;50.020;14.422;2023-03-14T07:40:28;96929.41;;;12.77;61.96
77171;BME280;66144;50.020;14.422;2023-03-14T07:42:53;96924.03;;;12.82;61.80
77171;BME280;66144;50.020;14.422;2023-03-14T07:45:20;96923.56;;;12.80;62.46
77171;BME280;66144;50.020;14.422;2023-03-14T07:47:45;96924.34;;;12.89;61.75
77171;BME280;66144;50.020;14.422;2023-03-14T07:50:11;96924.66;;;12.88;61.29
77171;BME280;66144;50.020;14.422;2023-03-14T07:52:36;96924.19;;;12.94;62.11
77171;BME280;66144;50.020;14.422;2023-03-14T07:55:01;96934.69;;;13.11;61.63
77171;BME280;66144;50.020;14.422;2023-03-14T07:57:27;96930.09;;;13.17;61.30
77171;BME280;66144;50.020;14.422;2023-03-14T07:59:52;96932.53;;;13.13;61.13
77171;BME280;66144;50.020;14.422;2023-03-14T08:02:17;96935.81;;;13.19;61.11
77171;BME280;66144;50.020;14.422;2023-03-14T08:04:45;96931.19;;;13.25;61.05
77171;BME280;66144;50.020;14.422;2023-03-14T08:07:10;96920.41;;;13.35;61.00
77171;BME280;66144;50.020;14.422;2023-03-14T08:09:36;96917.63;;;13.31;60.18
77171;BME280;66144;50.020;14.422;2023-03-14T08:12:01;96926.25;;;13.49;60.10
77171;BME280;66144;50.020;14.422;2023-03-14T08:14:26;96923.94;;;13.56;59.73
77171;BME280;66144;50.020;14.422;2023-03-14T08:16:54;96917.31;;;13.59;59.35
77171;BME280;66144;50.020;14.422;2023-03-14T08:19:19;96923.16;;;13.64;59.47
77171;BME280;66144;50.020;14.422;2023-03-14T08:21:45;96927.03;;;13.58;58.92
77171;BME280;66144;50.020;14.422;2023-03-14T08:24:11;96931.00;;;13.73;58.92
77171;BME280;66144;50.020;14.422;2023-03-14T08:26:36;96931.47;;;13.75;58.24
77171;BME280;66144;50.020;14.422;2023-03-14T08:29:02;96940.59;;;13.77;59.08
77171;BME280;66144;50.020;14.422;2023-03-14T08:31:29;96941.50;;;13.73;58.17
77171;BME280;66144;50.020;14.422;2023-03-14T08:33:55;96952.16;;;13.76;58.61
77171;BME280;66144;50.020;14.422;2023-03-14T08:36:20;96936.72;;;13.66;58.50
77171;BME280;66144;50.020;14.422;2023-03-14T08:38:45;96946.16;;;13.59;58.56
77171;BME280;66144;50.020;14.422;2023-03-14T08:41:11;96944.47;;;13.63;59.09
77171;BME280;66144;50.020;14.422;2023-03-14T08:43:37;96948.44;;;13.69;58.76
77171;BME280;66144;50.020;14.422;2023-03-14T08:46:02;96943.69;;;13.62;58.64
77171;BME280;66144;50.020;14.422;2023-03-14T08:48:28;96929.19;;;13.65;58.59
77171;BME280;66144;50.020;14.422;2023-03-14T08:51:05;96932.28;;;13.58;57.89
77171;BME280;66144;50.020;14.422;2023-03-14T08:53:30;96943.06;;;13.65;57.89
77171;BME280;66144;50.020;14.422;2023-03-14T08:55:55;96943.19;;;13.69;57.26
77171;BME280;66144;50.020;14.422;2023-03-14T08:58:21;96944.44;;;13.80;57.48
77171;BME280;66144;50.020;14.422;2023-03-14T09:00:48;96950.69;;;14.05;57.25
77171;BME280;66144;50.020;14.422;2023-03-14T09:03:14;96954.59;;;13.99;56.69
77171;BME280;66144;50.020;14.422;2023-03-14T09:05:39;96954.56;;;14.07;55.50
77171;BME280;66144;50.020;14.422;2023-03-14T09:08:05;96958.41;;;14.10;55.92
77171;BME280;66144;50.020;14.422;2023-03-14T09:10:30;96958.47;;;13.93;55.61
77171;BME280;66144;50.020;14.422;2023-03-14T09:12:56;96960.00;;;13.94;55.43
77171;BME280;66144;50.020;14.422;2023-03-14T09:15:23;96976.97;;;14.05;55.01
77171;BME280;66144;50.020;14.422;2023-03-14T09:17:49;96975.09;;;14.05;55.37
77171;BME280;66144;50.020;14.422;2023-03-14T09:20:14;96968.81;;;13.98;54.98
77171;BME280;66144;50.020;14.422;2023-03-14T09:22:39;96973.09;;;14.11;55.25
77171;BME280;66144;50.020;14.422;2023-03-14T09:25:06;96978.13;;;14.33;55.24
77171;BME280;66144;50.020;14.422;2023-03-14T09:27:31;96981.72;;;14.20;54.22
77171;BME280;66144;50.020;14.422;2023-03-14T09:29:57;96975.25;;;14.17;54.02
77171;BME280;66144;50.020;14.422;2023-03-14T09:32:22;96973.03;;;14.28;54.00
77171;BME280;66144;50.020;14.422;2023-03-14T09:34:47;96967.78;;;14.37;53.91
77171;BME280;66144;50.020;14.422;2023-03-14T09:37:13;96954.94;;;14.35;53.34
77171;BME280;66144;50.020;14.422;2023-03-14T09:39:40;96957.13;;;14.33;54.06
77171;BME280;66144;50.020;14.422;2023-03-14T09:42:08;96948.38;;;14.21;52.26
77171;BME280;66144;50.020;14.422;2023-03-14T09:44:39;96946.75;;;14.37;52.83
77171;BME280;66144;50.020;14.422;2023-03-14T09:47:11;96959.00;;;14.24;52.62
77171;BME280;66144;50.020;14.422;2023-03-14T09:49:41;96958.88;;;14.21;52.84
77171;BME280;66144;50.020;14.422;2023-03-14T09:52:35;96954.09;;;14.14;52.87
77171;BME280;66144;50.020;14.422;2023-03-14T09:55:07;96953.94;;;14.10;53.03
77171;BME280;66144;50.020;14.422;2023-03-14T09:57:35;96949.00;;;14.09;52.79
77171;BME280;66144;50.020;14.422;2023-03-14T10:00:12;96951.78;;;14.12;52.63
77171;BME280;66144;50.020;14.422;2023-03-14T10:05:27;96951.03;;;14.03;52.06
77171;BME280;66144;50.020;14.422;2023-03-14T10:07:55;96946.91;;;13.85;52.14
77171;BME280;66144;50.020;14.422;2023-03-14T10:10:22;96951.97;;;13.90;53.08
77171;BME280;66144;50.020;14.422;2023-03-14T10:12:55;96959.06;;;13.90;53.19
77171;BME280;66144;50.020;14.422;2023-03-14T10:15:32;96947.66;;;13.86;53.02
77171;BME280;66144;50.020;14.422;2023-03-14T10:18:00;96944.59;;;13.83;52.89
77171;BME280;66144;50.020;14.422;2023-03-14T10:20:34;96955.09;;;13.83;52.98
77171;BME280;66144;50.020;14.422;2023-03-14T10:23:16;96956.75;;;13.88;53.49
77171;BME280;66144;50.020;14.422;2023-03-14T10:28:30;96946.88;;;14.02;53.11
77171;BME280;66144;50.020;14.422;2023-03-14T10:30:56;96949.31;;;14.07;52.82
77171;BME280;66144;50.020;14.422;2023-03-14T10:33:23;96952.09;;;14.11;53.14
77171;BME280;66144;50.020;14.422;2023-03-14T10:35:59;96944.97;;;14.20;52.95
77171;BME280;66144;50.020;14.422;2023-03-14T10:38:33;96949.00;;;14.17;52.97
77171;BME280;66144;50.020;14.422;2023-03-14T10:40:59;96950.38;;;14.06;52.20
77171;BME280;66144;50.020;14.422;2023-03-14T10:43:30;96955.94;;;14.05;52.34
77171;BME280;66144;50.020;14.422;2023-03-14T10:46:05;96947.81;;;13.89;52.28
77171;BME280;66144;50.020;14.422;2023-03-14T10:48:36;96944.59;;;13.83;52.28
77171;BME280;66144;50.020;14.422;2023-03-14T10:56:21;96954.91;;;13.97;53.11
77171;BME280;66144;50.020;14.422;2023-03-14T10:58:49;96951.47;;;14.05;53.43
77171;BME280;66144;50.020;14.422;2023-03-14T11:04:05;96955.38;;;13.99;52.98
77171;BME280;66144;50.020;14.422;2023-03-14T11:09:34;96957.69;;;13.92;52.98
77171;BME280;66144;50.020;14.422;2023-03-14T11:12:28;96958.63;;;13.88;53.22
77171;BME280;66144;50.020;14.422;2023-03-14T11:15:02;96950.75;;;13.88;53.51
77171;BME280;66144;50.020;14.422;2023-03-14T11:17:35;96948.41;;;13.95;53.59
77171;BME280;66144;50.020;14.422;2023-03-14T11:22:35;96946.56;;;13.87;53.47
77171;BME280;66144;50.020;14.422;2023-03-14T11:30:06;96956.28;;;13.95;52.62
77171;BME280;66144;50.020;14.422;2023-03-14T11:38:23;96943.03;;;13.91;52.61
77171;BME280;66144;50.020;14.422;2023-03-14T11:40:54;96950.94;;;13.82;52.89
77171;BME280;66144;50.020;14.422;2023-03-14T11:43:40;96940.13;;;13.75;52.69
77171;BME280;66144;50.020;14.422;2023-03-14T11:46:19;96947.53;;;13.73;52.85
77171;BME280;66144;50.020;14.422;2023-03-14T11:51:24;96930.56;;;13.71;52.52
77171;BME280;66144;50.020;14.422;2023-03-14T11:56:59;96934.44;;;13.65;52.57
77171;BME280;66144;50.020;14.422;2023-03-14T12:02:01;96926.22;;;13.75;52.02
77171;BME280;66144;50.020;14.422;2023-03-14T12:04:46;96928.38;;;13.73;52.18
77171;BME280;66144;50.020;14.422;2023-03-14T12:07:29;96924.69;;;13.74;51.67
77171;BME280;66144;50.020;14.422;2023-03-14T12:10:04;96926.06;;;13.80;52.00
77171;BME280;66144;50.020;14.422;2023-03-14T12:12:30;96930.69;;;13.74;51.92
77171;BME280;66144;50.020;14.422;2023-03-14T12:14:58;96927.94;;;13.79;52.33
77171;BME280;66144;50.020;14.422;2023-03-14T12:17:38;96920.34;;;13.87;52.24
77171;BME280;66144;50.020;14.422;2023-03-14T12:20:17;96928.84;;;13.83;51.80
77171;BME280;66144;50.020;14.422;2023-03-14T12:22:50;96922.84;;;13.83;51.69
77171;BME280;66144;50.020;14.422;2023-03-14T12:30:29;96918.47;;;13.87;51.52
77171;BME280;66144;50.020;14.422;2023-03-14T12:41:26;96900.41;;;14.03;50.84
77171;BME280;66144;50.020;14.422;2023-03-14T12:43:53;96896.97;;;14.11;51.77
77171;BME280;66144;50.020;14.422;2023-03-14T12:48:46;96887.50;;;14.18;51.28
77171;BME280;66144;50.020;14.422;2023-03-14T12:51:17;96892.72;;;14.27;51.09
77171;BME280;66144;50.020;14.422;2023-03-14T12:54:26;96899.72;;;14.23;50.62
77171;BME280;66144;50.020;14.422;2023-03-14T13:02:37;96890.75;;;14.15;51.40
77171;BME280;66144;50.020;14.422;2023-03-14T13:05:12;96893.25;;;14.12;50.38
77171;BME280;66144;50.020;14.422;2023-03-14T13:13:04;96889.91;;;14.03;51.06
77171;BME280;66144;50.020;14.422;2023-03-14T13:18:15;96882.41;;;14.22;50.96
77171;BME280;66144;50.020;14.422;2023-03-14T13:23:28;96882.66;;;14.29;50.55
77171;BME280;66144;50.020;14.422;2023-03-14T13:25:54;96873.00;;;14.21;50.45
77171;BME280;66144;50.020;14.422;2023-03-14T13:28:20;96883.28;;;14.26;50.20
77171;BME280;66144;50.020;14.422;2023-03-14T13:30:47;96880.66;;;14.26;50.32
77171;BME280;66144;50.020;14.422;2023-03-14T13:33:19;96875.72;;;14.25;50.25
77171;BME280;66144;50.020;14.422;2023-03-14T13:35:47;96871.13;;;14.22;50.86
77171;BME280;66144;50.020;14.422;2023-03-14T13:38:20;96867.91;;;14.16;50.30
77171;BME280;66144;50.020;14.422;2023-03-14T13:40:47;96861.88;;;14.15;50.40
77171;BME280;66144;50.020;14.422;2023-03-14T13:43:23;96859.25;;;14.15;49.95
77171;BME280;66144;50.020;14.422;2023-03-14T13:45:52;96864.81;;;14.23;50.15
77171;BME280;66144;50.020;14.422;2023-03-14T13:48:19;96852.38;;;14.32;50.40
77171;BME280;66144;50.020;14.422;2023-03-14T13:50:54;96859.19;;;14.41;50.08
77171;BME280;66144;50.020;14.422;2023-03-14T13:53:20;96857.13;;;14.47;49.85
77171;BME280;66144;50.020;14.422;2023-03-14T13:55:46;96854.63;;;14.50;49.91
77171;BME280;66144;50.020;14.422;2023-03-14T13:58:19;96848.66;;;14.41;49.51
77171;BME280;66144;50.020;14.422;2023-03-14T14:00:58;96845.84;;;14.46;49.97
77171;BME280;66144;50.020;14.422;2023-03-14T14:03:24;96846.19;;;14.36;49.77
77171;BME280;66144;50.020;14.422;2023-03-14T14:05:50;96850.22;;;14.42;49.94
77171;BME280;66144;50.020;14.422;2023-03-14T14:08:16;96846.81;;;14.42;49.63